createdAt,value
2022-11-14T00:01:11.965Z,431
2022-11-14T00:02:11.839Z,437
2022-11-14T00:03:11.329Z,427
2022-11-14T00:04:10.880Z,429
2022-11-14T00:05:11.147Z,440
2022-11-14T00:06:11.550Z,435
2022-11-14T00:07:11.751Z,432
2022-11-14T00:08:11.215Z,427
2022-11-14T00:09:11.341Z,428
2022-11-14T00:10:11.843Z,425
2022-11-14T00:11:11.157Z,432
2022-11-14T00:12:11.645Z,427
2022-11-14T00:13:11.056Z,426
2022-11-14T00:14:11.530Z,427
2022-11-14T00:15:11.178Z,429
2022-11-14T00:16:11.599Z,430
2022-11-14T00:17:11.077Z,435
2022-11-14T00:18:11.505Z,434
2022-11-14T00:19:11.119Z,430
2022-11-14T00:20:11.976Z,426
2022-11-14T00:21:11.348Z,423
2022-11-14T00:22:11.713Z,425
2022-11-14T00:23:11.089Z,429
2022-11-14T00:24:11.738Z,431
2022-11-14T00:25:11.401Z,427
2022-11-14T00:26:11.112Z,419
2022-11-14T00:27:11.569Z,418
2022-11-14T00:28:11.073Z,429
2022-11-14T00:29:11.422Z,435
2022-11-14T00:30:11.808Z,429
2022-11-14T00:31:11.499Z,425
2022-11-14T00:32:11.293Z,418
2022-11-14T00:33:14.759Z,428
2022-11-14T00:34:10.885Z,432
2022-11-14T00:35:11.396Z,439
2022-11-14T00:36:11.300Z,425
2022-11-14T00:38:11.344Z,416
2022-11-14T00:39:11.418Z,413
2022-11-14T00:40:10.912Z,410
2022-11-14T00:41:11.104Z,418
2022-11-14T00:42:11.452Z,420
2022-11-14T00:43:11.009Z,423
2022-11-14T00:45:11.938Z,433
2022-11-14T00:46:11.085Z,429
2022-11-14T00:47:11.378Z,431
2022-11-14T00:48:11.722Z,425
2022-11-14T00:49:11.252Z,427
2022-11-14T00:50:11.743Z,419
2022-11-14T00:51:11.349Z,422
2022-11-14T00:52:11.799Z,429
2022-11-14T00:53:10.987Z,434
2022-11-14T00:54:11.032Z,436
2022-11-14T00:55:11.698Z,426
2022-11-14T00:56:11.235Z,420
2022-11-14T00:57:11.728Z,417
2022-11-14T00:58:10.896Z,416
2022-11-14T00:59:11.341Z,418
2022-11-14T01:00:12.373Z,431
2022-11-14T01:01:12.527Z,430
2022-11-14T01:02:11.028Z,424
2022-11-14T01:03:11.484Z,417
2022-11-14T01:04:11.193Z,422
2022-11-14T01:05:11.835Z,432
2022-11-14T01:06:11.371Z,439
2022-11-14T01:07:10.964Z,431
2022-11-14T01:08:11.288Z,425
2022-11-14T01:09:11.087Z,435
2022-11-14T01:10:11.839Z,436
2022-11-14T01:11:11.229Z,423
2022-11-14T01:12:11.622Z,419
2022-11-14T01:13:11.003Z,434
2022-11-14T01:14:11.758Z,425
2022-11-14T01:15:11.182Z,424
2022-11-14T01:16:11.612Z,431
2022-11-14T01:17:10.872Z,419
2022-11-14T01:18:11.544Z,413
2022-11-14T01:19:10.772Z,405
2022-11-14T01:20:11.303Z,406
2022-11-14T01:21:10.996Z,409
2022-11-14T01:22:11.336Z,406
2022-11-14T01:23:11.667Z,416
2022-11-14T01:24:11.609Z,420
2022-11-14T01:25:11.232Z,412
2022-11-14T01:26:10.943Z,413
2022-11-14T01:27:11.535Z,415
2022-11-14T01:29:10.988Z,412
2022-11-14T01:31:11.165Z,421
2022-11-14T01:32:11.665Z,416
2022-11-14T01:33:10.965Z,421
2022-11-14T01:35:11.422Z,427
2022-11-14T01:36:10.934Z,429
2022-11-14T01:37:11.215Z,406
2022-11-14T01:39:11.286Z,419
2022-11-14T01:40:11.942Z,424
2022-11-14T01:41:11.313Z,421
2022-11-14T01:42:10.765Z,429
2022-11-14T01:43:10.839Z,435
2022-11-14T01:44:11.189Z,439
2022-11-14T01:45:11.866Z,432
2022-11-14T01:46:10.917Z,419
2022-11-14T01:47:11.486Z,439
2022-11-14T01:49:11.175Z,430
2022-11-14T01:50:11.777Z,420
2022-11-14T01:51:11.137Z,421
2022-11-14T01:52:11.432Z,428
2022-11-14T01:53:11.108Z,434
2022-11-14T01:54:11.639Z,433
2022-11-14T01:55:11.265Z,420
2022-11-14T01:56:11.608Z,418
2022-11-14T01:57:11.333Z,421
2022-11-14T01:58:11.025Z,430
2022-11-14T01:59:11.155Z,432
2022-11-14T02:00:12.338Z,436
2022-11-14T02:01:11.169Z,422
2022-11-14T02:02:10.876Z,419
2022-11-14T02:03:11.315Z,428
2022-11-14T02:04:15.250Z,426
2022-11-14T02:05:11.647Z,432
2022-11-14T02:06:11.609Z,423
2022-11-14T02:07:11.485Z,424
2022-11-14T02:08:10.812Z,418
2022-11-14T02:09:11.529Z,419
2022-11-14T02:10:11.425Z,430
2022-11-14T02:11:10.935Z,429
2022-11-14T02:12:11.031Z,434
2022-11-14T02:14:11.519Z,428
2022-11-14T02:15:10.987Z,432
2022-11-14T02:16:11.503Z,435
2022-11-14T02:17:29.549Z,439
2022-11-14T02:18:11.107Z,442
2022-11-14T02:19:11.758Z,432
2022-11-14T02:20:11.396Z,426
2022-11-14T02:21:10.953Z,436
2022-11-14T02:22:11.398Z,432
2022-11-14T02:23:11.738Z,436
2022-11-14T02:24:11.112Z,435
2022-11-14T02:25:11.637Z,425
2022-11-14T02:26:11.436Z,442
2022-11-14T02:27:10.997Z,436
2022-11-14T02:28:11.405Z,426
2022-11-14T02:29:11.074Z,423
2022-11-14T02:30:11.797Z,428
2022-11-14T02:31:11.660Z,433
2022-11-14T02:32:11.215Z,430
2022-11-14T02:33:11.944Z,449
2022-11-14T02:34:11.418Z,444
2022-11-14T02:35:11.597Z,429
2022-11-14T02:36:10.945Z,419
2022-11-14T02:37:11.159Z,435
2022-11-14T02:38:11.735Z,438
2022-11-14T02:39:11.116Z,439
2022-11-14T02:40:11.445Z,428
2022-11-14T02:42:11.265Z,443
2022-11-14T02:43:11.508Z,433
2022-11-14T02:44:10.768Z,430
2022-11-14T02:45:11.237Z,435
2022-11-14T02:47:10.922Z,438
2022-11-14T02:48:11.649Z,443
2022-11-14T02:49:11.069Z,449
2022-11-14T02:50:11.726Z,445
2022-11-14T02:51:10.987Z,436
2022-11-14T02:52:11.219Z,431
2022-11-14T02:53:11.419Z,432
2022-11-14T02:54:10.873Z,440
2022-11-14T02:55:11.155Z,437
2022-11-14T02:56:11.718Z,433
2022-11-14T02:57:10.859Z,436
2022-11-14T02:58:11.159Z,424
2022-11-14T02:59:11.656Z,438
2022-11-14T03:00:14.786Z,446
2022-11-14T03:01:20.664Z,439
2022-11-14T03:02:11.669Z,443
2022-11-14T03:03:11.268Z,439
2022-11-14T03:04:11.776Z,444
2022-11-14T03:06:11.571Z,438
2022-11-14T03:07:11.094Z,448
2022-11-14T03:08:11.908Z,457
2022-11-14T03:09:11.931Z,454
2022-11-14T03:10:11.519Z,453
2022-11-14T03:11:11.917Z,444
2022-11-14T03:12:11.184Z,450
2022-11-14T03:14:11.410Z,443
2022-11-14T03:15:12.161Z,447
2022-11-14T03:16:11.837Z,456
2022-11-14T03:17:11.290Z,453
2022-11-14T03:18:11.789Z,451
2022-11-14T03:19:11.430Z,438
2022-11-14T03:20:10.933Z,448
2022-11-14T03:21:11.478Z,449
2022-11-14T03:22:11.192Z,446
2022-11-14T03:23:11.501Z,452
2022-11-14T03:24:11.294Z,448
2022-11-14T03:25:11.734Z,445
2022-11-14T03:26:11.011Z,448
2022-11-14T03:27:11.355Z,443
2022-11-14T03:28:11.018Z,452
2022-11-14T03:29:11.352Z,447
2022-11-14T03:30:11.858Z,449
2022-11-14T03:31:11.126Z,453
2022-11-14T03:32:11.427Z,442
2022-11-14T03:33:11.030Z,433
2022-11-14T03:34:11.484Z,420
2022-11-14T03:35:12.003Z,424
2022-11-14T03:36:11.262Z,432
2022-11-14T03:37:11.076Z,408
2022-11-14T03:38:11.770Z,417
2022-11-14T03:39:11.279Z,424
2022-11-14T03:40:11.536Z,425
2022-11-14T03:41:11.803Z,422
2022-11-14T03:42:11.236Z,394
2022-11-14T03:43:11.463Z,421
2022-11-14T03:44:11.617Z,434
2022-11-14T03:45:10.889Z,407
2022-11-14T03:46:11.178Z,404
2022-11-14T03:47:11.136Z,408
2022-11-14T03:48:11.356Z,411
2022-11-14T03:49:11.704Z,418
2022-11-14T03:50:11.177Z,419
2022-11-14T03:51:11.538Z,400
2022-11-14T03:53:11.497Z,412
2022-11-14T03:54:11.951Z,417
2022-11-14T03:55:11.440Z,418
2022-11-14T03:56:11.104Z,419
2022-11-14T03:57:11.762Z,411
2022-11-14T03:58:10.911Z,418
2022-11-14T03:59:10.973Z,428
2022-11-14T04:00:12.179Z,420
2022-11-14T04:01:10.995Z,430
2022-11-14T04:02:11.647Z,429
2022-11-14T04:03:11.004Z,421
2022-11-14T04:04:11.501Z,413
2022-11-14T04:05:10.991Z,407
2022-11-14T04:06:11.654Z,389
2022-11-14T04:07:11.068Z,411
2022-11-14T04:08:11.491Z,404
2022-11-14T04:09:11.075Z,406
2022-11-14T04:11:11.350Z,409
2022-11-14T04:12:15.503Z,405
2022-11-14T04:13:11.826Z,396
2022-11-14T04:14:11.057Z,386
2022-11-14T04:15:11.296Z,395
2022-11-14T04:16:11.698Z,405
2022-11-14T04:17:11.172Z,408
2022-11-14T04:18:11.586Z,426
2022-11-14T04:19:11.389Z,417
2022-11-14T04:20:11.346Z,410
2022-11-14T04:21:11.855Z,406
2022-11-14T04:22:11.391Z,396
2022-11-14T04:23:11.796Z,406
2022-11-14T04:24:11.413Z,413
2022-11-14T04:25:10.911Z,418
2022-11-14T04:26:11.580Z,423
2022-11-14T04:27:10.984Z,428
2022-11-14T04:28:11.257Z,423
2022-11-14T04:29:11.743Z,417
2022-11-14T04:30:11.454Z,423
2022-11-14T04:31:11.011Z,416
2022-11-14T04:32:11.353Z,412
2022-11-14T04:33:11.961Z,410
2022-11-14T04:34:11.619Z,415
2022-11-14T04:35:11.262Z,410
2022-11-14T04:36:11.773Z,417
2022-11-14T04:37:11.120Z,411
2022-11-14T04:38:11.623Z,409
2022-11-14T04:39:11.523Z,410
2022-11-14T04:40:11.035Z,401
2022-11-14T04:41:11.360Z,405
2022-11-14T04:42:11.072Z,402
2022-11-14T04:43:11.471Z,413
2022-11-14T04:44:10.924Z,420
2022-11-14T04:45:11.514Z,435
2022-11-14T04:46:10.915Z,433
2022-11-14T04:47:11.473Z,429
2022-11-14T04:48:10.644Z,428
2022-11-14T04:49:11.146Z,418
2022-11-14T04:50:11.788Z,425
2022-11-14T04:51:11.598Z,438
2022-11-14T04:52:10.946Z,436
2022-11-14T04:53:11.390Z,443
2022-11-14T04:54:11.087Z,446
2022-11-14T04:55:11.506Z,435
2022-11-14T04:56:10.888Z,425
2022-11-14T04:57:11.502Z,436
2022-11-14T04:58:10.984Z,433
2022-11-14T04:59:14.719Z,434
2022-11-14T05:00:11.808Z,419
2022-11-14T05:01:11.864Z,425
2022-11-14T05:02:11.687Z,427
2022-11-14T05:03:11.444Z,429
2022-11-14T05:04:11.081Z,432
2022-11-14T05:05:11.526Z,433
2022-11-14T05:06:11.332Z,436
2022-11-14T05:07:12.136Z,434
2022-11-14T05:08:11.557Z,424
2022-11-14T05:09:11.215Z,426
2022-11-14T05:10:11.982Z,424
2022-11-14T05:11:11.381Z,427
2022-11-14T05:12:10.790Z,432
2022-11-14T05:13:11.113Z,442
2022-11-14T05:14:11.709Z,443
2022-11-14T05:15:11.374Z,431
2022-11-14T05:16:10.961Z,429
2022-11-14T05:17:11.396Z,440
2022-11-14T05:18:10.752Z,418
2022-11-14T05:19:11.113Z,428
2022-11-14T05:20:11.639Z,430
2022-11-14T05:21:11.133Z,428
2022-11-14T05:22:11.436Z,442
2022-11-14T05:23:10.836Z,441
2022-11-14T05:24:11.018Z,437
2022-11-14T05:25:11.711Z,438
2022-11-14T05:26:11.323Z,448
2022-11-14T05:27:10.799Z,438
2022-11-14T05:28:16.265Z,436
2022-11-14T05:29:11.552Z,427
2022-11-14T05:30:15.903Z,433
2022-11-14T05:31:10.859Z,425
2022-11-14T05:32:16.598Z,429
2022-11-14T05:33:11.570Z,428
2022-11-14T05:34:11.068Z,433
2022-11-14T05:35:11.834Z,422
2022-11-14T05:36:11.154Z,423
2022-11-14T05:37:11.573Z,424
2022-11-14T05:38:11.048Z,416
2022-11-14T05:39:11.455Z,421
2022-11-14T05:40:11.453Z,408
2022-11-14T05:41:11.138Z,407
2022-11-14T05:42:11.437Z,419
2022-11-14T05:43:11.256Z,425
2022-11-14T05:44:11.569Z,426
2022-11-14T05:45:11.120Z,418
2022-11-14T05:46:11.786Z,428
2022-11-14T05:47:11.163Z,430
2022-11-14T05:48:11.803Z,429
2022-11-14T05:49:11.533Z,432
2022-11-14T05:50:11.320Z,426
2022-11-14T05:51:12.607Z,424
2022-11-14T05:52:11.272Z,418
2022-11-14T05:53:12.110Z,414
2022-11-14T05:54:11.863Z,421
2022-11-14T05:55:11.422Z,427
2022-11-14T05:56:11.571Z,424
2022-11-14T05:57:11.390Z,422
2022-11-14T05:58:11.044Z,417
2022-11-14T05:59:11.145Z,420
2022-11-14T06:00:12.611Z,428
2022-11-14T06:01:11.410Z,439
2022-11-14T06:02:11.096Z,431
2022-11-14T06:03:10.949Z,438
2022-11-14T06:04:11.467Z,436
2022-11-14T06:05:11.203Z,429
2022-11-14T06:06:11.370Z,435
2022-11-14T06:07:16.242Z,439
2022-11-14T06:08:11.508Z,431
2022-11-14T06:09:11.053Z,435
2022-11-14T06:10:11.571Z,449
2022-11-14T06:11:11.335Z,451
2022-11-14T06:12:30.428Z,450
2022-11-14T06:13:11.423Z,446
2022-11-14T06:14:11.393Z,434
2022-11-14T06:15:11.572Z,436
2022-11-14T06:16:11.682Z,430
2022-11-14T06:17:11.482Z,420
2022-11-14T06:18:11.065Z,430
2022-11-14T06:19:11.504Z,425
2022-11-14T06:20:11.344Z,416
2022-11-14T06:21:11.116Z,427
2022-11-14T06:22:11.585Z,434
2022-11-14T06:23:11.293Z,439
2022-11-14T06:24:11.758Z,433
2022-11-14T06:25:11.519Z,427
2022-11-14T06:26:11.171Z,436
2022-11-14T06:27:11.352Z,421
2022-11-14T06:28:12.083Z,426
2022-11-14T06:29:11.102Z,420
2022-11-14T06:30:12.050Z,428
2022-11-14T06:31:11.417Z,439
2022-11-14T06:32:11.284Z,440
2022-11-14T06:33:11.750Z,441
2022-11-14T06:34:11.049Z,445
2022-11-14T06:35:11.802Z,440
2022-11-14T06:36:11.494Z,435
2022-11-14T06:37:11.135Z,439
2022-11-14T06:38:11.733Z,435
2022-11-14T06:39:11.209Z,434
2022-11-14T06:40:10.862Z,438
2022-11-14T06:41:11.350Z,440
2022-11-14T06:42:11.293Z,433
2022-11-14T06:43:11.458Z,437
2022-11-14T06:44:11.353Z,438
2022-11-14T06:45:12.312Z,442
2022-11-14T06:46:11.417Z,438
2022-11-14T06:48:11.109Z,434
2022-11-14T06:49:11.562Z,440
2022-11-14T06:50:11.074Z,442
2022-11-14T06:51:11.372Z,420
2022-11-14T06:52:10.896Z,414
2022-11-14T06:53:11.339Z,419
2022-11-14T06:54:14.791Z,424
2022-11-14T06:55:13.855Z,425
2022-11-14T06:56:13.011Z,431
2022-11-14T06:57:11.457Z,432
2022-11-14T06:58:14.525Z,434
2022-11-14T06:59:12.436Z,420
2022-11-14T07:00:13.062Z,422
2022-11-14T07:01:12.345Z,414
2022-11-14T07:02:10.922Z,413
2022-11-14T07:03:12.022Z,414
2022-11-14T07:04:13.838Z,410
2022-11-14T07:05:12.945Z,412
2022-11-14T07:06:12.478Z,408
2022-11-14T07:07:14.375Z,415
2022-11-14T07:08:10.816Z,420
2022-11-14T07:09:10.653Z,422
2022-11-14T07:10:11.194Z,417
2022-11-14T07:11:11.633Z,426
2022-11-14T07:12:11.633Z,429
2022-11-14T07:13:11.853Z,407
2022-11-14T07:15:12.024Z,411
2022-11-14T07:16:11.501Z,412
2022-11-14T07:17:11.611Z,417
2022-11-14T07:18:10.935Z,412
2022-11-14T07:19:11.532Z,410
2022-11-14T07:21:10.749Z,424
2022-11-14T07:22:11.358Z,411
2022-11-14T07:23:12.066Z,398
2022-11-14T07:24:11.101Z,404
2022-11-14T07:25:11.566Z,405
2022-11-14T07:26:11.178Z,410
2022-11-14T07:27:12.072Z,418
2022-11-14T07:28:11.814Z,411
2022-11-14T07:29:11.799Z,413
2022-11-14T07:30:11.995Z,416
2022-11-14T07:31:11.626Z,421
2022-11-14T07:32:11.388Z,413
2022-11-14T07:33:12.246Z,408
2022-11-14T07:34:11.727Z,423
2022-11-14T07:35:11.432Z,415
2022-11-14T07:36:11.082Z,413
2022-11-14T07:37:11.685Z,411
2022-11-14T07:38:11.104Z,399
2022-11-14T07:39:11.705Z,402
2022-11-14T07:40:11.520Z,414
2022-11-14T07:41:12.225Z,403
2022-11-14T07:42:11.556Z,395
2022-11-14T07:43:11.227Z,406
2022-11-14T07:44:11.815Z,408
2022-11-14T07:45:11.165Z,400
2022-11-14T07:46:11.674Z,399
2022-11-14T07:47:10.945Z,401
2022-11-14T07:48:11.595Z,400
2022-11-14T07:49:10.800Z,407
2022-11-14T07:50:12.482Z,411
2022-11-14T07:51:11.984Z,403
2022-11-14T07:53:11.405Z,412
2022-11-14T07:54:11.601Z,403
2022-11-14T07:55:11.024Z,407
2022-11-14T07:56:11.246Z,410
2022-11-14T07:57:11.561Z,404
2022-11-14T07:58:10.925Z,425
2022-11-14T07:59:11.704Z,400
2022-11-14T08:01:11.057Z,399
2022-11-14T08:02:11.562Z,403
2022-11-14T08:03:11.798Z,414
2022-11-14T08:04:10.811Z,420
2022-11-14T08:05:10.927Z,414
2022-11-14T08:06:10.840Z,408
2022-11-14T08:07:10.861Z,404
2022-11-14T08:08:11.100Z,409
2022-11-14T08:09:13.298Z,402
2022-11-14T08:10:11.103Z,395
2022-11-14T08:11:11.164Z,401
2022-11-14T08:12:10.811Z,406
2022-11-14T08:13:31.025Z,408
2022-11-14T08:14:11.490Z,398
2022-11-14T08:15:11.615Z,396
2022-11-14T08:17:11.323Z,403
2022-11-14T08:18:11.332Z,406
2022-11-14T08:19:11.399Z,396
2022-11-14T08:20:11.462Z,409
2022-11-14T08:21:11.381Z,398
2022-11-14T08:22:10.963Z,377
2022-11-14T08:23:10.816Z,390
2022-11-14T08:24:10.969Z,400
2022-11-14T08:25:25.153Z,402
2022-11-14T08:26:10.722Z,391
2022-11-14T08:27:10.988Z,388
2022-11-14T08:28:11.051Z,387
2022-11-14T08:29:11.160Z,398
2022-11-14T08:30:10.980Z,387
2022-11-14T08:31:11.003Z,381
2022-11-14T08:32:10.959Z,390
2022-11-14T08:33:11.017Z,397
2022-11-14T08:34:11.171Z,398
2022-11-14T08:35:11.447Z,396
2022-11-14T08:36:11.562Z,399
2022-11-14T08:37:11.216Z,391
2022-11-14T08:38:10.978Z,386
2022-11-14T08:39:11.134Z,389
2022-11-14T08:40:11.370Z,400
2022-11-14T08:41:11.052Z,385
2022-11-14T08:42:10.782Z,399
2022-11-14T08:43:10.704Z,403
2022-11-14T08:44:10.906Z,392
2022-11-14T08:45:11.019Z,389
2022-11-14T08:46:11.094Z,395
2022-11-14T08:47:13.481Z,403
2022-11-14T08:48:11.147Z,404
2022-11-14T08:49:11.261Z,383
2022-11-14T08:51:10.779Z,386
2022-11-14T08:52:16.331Z,385
2022-11-14T08:53:11.428Z,393
2022-11-14T08:54:11.579Z,395
2022-11-14T08:55:11.436Z,391
2022-11-14T08:57:10.699Z,392
2022-11-14T08:58:11.294Z,389
2022-11-14T08:59:13.202Z,387
2022-11-14T09:00:11.803Z,384
2022-11-14T09:01:10.694Z,387
2022-11-14T09:02:11.350Z,384
2022-11-14T09:03:11.572Z,389
2022-11-14T09:05:11.223Z,378
2022-11-14T09:06:11.809Z,385
2022-11-14T09:07:10.846Z,392
2022-11-14T09:08:11.147Z,380
2022-11-14T09:09:11.093Z,383
2022-11-14T09:10:10.907Z,385
2022-11-14T09:11:12.416Z,379
2022-11-14T09:12:10.834Z,382
2022-11-14T09:13:10.787Z,387
2022-11-14T09:14:11.016Z,393
2022-11-14T09:15:11.133Z,382
2022-11-14T09:16:11.154Z,372
2022-11-14T09:17:11.410Z,369
2022-11-14T09:18:11.396Z,383
2022-11-14T09:20:11.036Z,386
2022-11-14T09:21:10.976Z,387
2022-11-14T09:22:10.987Z,394
2022-11-14T09:23:10.943Z,385
2022-11-14T09:24:10.846Z,379
2022-11-14T09:25:11.456Z,386
2022-11-14T09:26:11.581Z,400
2022-11-14T09:27:10.745Z,392
2022-11-14T09:28:10.938Z,403
2022-11-14T09:29:11.041Z,406
2022-11-14T09:30:11.346Z,391
2022-11-14T09:31:11.095Z,376
2022-11-14T09:32:11.293Z,374
2022-11-14T09:33:11.938Z,386
2022-11-14T09:34:11.289Z,392
2022-11-14T09:35:11.281Z,378
2022-11-14T09:36:11.164Z,385
2022-11-14T09:37:11.310Z,384
2022-11-14T09:38:11.337Z,389
2022-11-14T09:39:11.443Z,391
2022-11-14T09:40:11.688Z,396
2022-11-14T09:41:11.224Z,405
2022-11-14T09:42:15.787Z,384
2022-11-14T09:43:10.636Z,383
2022-11-14T09:44:10.795Z,379
2022-11-14T09:45:11.625Z,383
2022-11-14T09:47:11.072Z,394
2022-11-14T09:48:11.679Z,392
2022-11-14T09:49:10.725Z,388
2022-11-14T09:50:10.755Z,389
2022-11-14T09:52:10.465Z,384
2022-11-14T09:53:11.489Z,379
2022-11-14T09:54:10.628Z,387
2022-11-14T09:55:10.797Z,395
2022-11-14T09:57:11.199Z,392
2022-11-14T09:58:11.291Z,395
2022-11-14T09:59:11.193Z,396
2022-11-14T10:00:11.931Z,398
2022-11-14T10:01:11.132Z,390
2022-11-14T10:02:11.308Z,389
2022-11-14T10:03:10.888Z,386
2022-11-14T10:04:10.909Z,391
2022-11-14T10:05:11.139Z,394
2022-11-14T10:06:11.186Z,385
2022-11-14T10:07:11.574Z,387
2022-11-14T10:08:11.010Z,403
2022-11-14T10:09:11.305Z,406
2022-11-14T10:10:11.564Z,380
2022-11-14T10:11:10.907Z,379
2022-11-14T10:12:10.950Z,381
2022-11-14T10:13:11.216Z,383
2022-11-14T10:14:11.671Z,385
2022-11-14T10:15:10.825Z,383
2022-11-14T10:16:11.096Z,379
2022-11-14T10:17:11.441Z,369
2022-11-14T10:18:11.021Z,375
2022-11-14T10:19:11.192Z,391
2022-11-14T10:20:11.768Z,395
2022-11-14T10:21:10.751Z,400
2022-11-14T10:22:10.472Z,394
2022-11-14T10:23:11.125Z,392
2022-11-14T10:24:11.369Z,387
2022-11-14T10:25:11.719Z,379
2022-11-14T10:26:10.880Z,386
2022-11-14T10:27:11.250Z,382
2022-11-14T10:28:11.307Z,375
2022-11-14T10:29:10.999Z,385
2022-11-14T10:30:16.659Z,391
2022-11-14T10:31:11.392Z,377
2022-11-14T10:32:11.135Z,387
2022-11-14T10:33:11.181Z,390
2022-11-14T10:34:11.628Z,380
2022-11-14T10:35:10.744Z,386
2022-11-14T10:36:11.237Z,385
2022-11-14T10:37:10.846Z,379
2022-11-14T10:38:11.722Z,380
2022-11-14T10:39:10.987Z,382
2022-11-14T10:40:25.261Z,402
2022-11-14T10:41:19.223Z,400
2022-11-14T10:42:25.325Z,396
2022-11-14T10:43:11.100Z,393
2022-11-14T10:44:11.250Z,380
2022-11-14T10:45:11.829Z,386
2022-11-14T10:46:10.918Z,381
2022-11-14T10:47:11.048Z,395
2022-11-14T10:48:11.256Z,391
2022-11-14T10:49:11.520Z,388
2022-11-14T10:50:10.888Z,372
2022-11-14T10:51:11.231Z,394
2022-11-14T10:53:11.495Z,388
2022-11-14T10:54:29.834Z,395
2022-11-14T10:55:10.661Z,436
2022-11-14T10:56:11.028Z,452
2022-11-14T10:57:11.068Z,447
2022-11-14T10:59:11.595Z,441
2022-11-14T11:00:11.724Z,425
2022-11-14T11:01:11.289Z,419
2022-11-14T11:02:11.414Z,411
2022-11-14T11:03:10.925Z,414
2022-11-14T11:04:11.024Z,410
2022-11-14T11:05:11.328Z,400
2022-11-14T11:06:10.706Z,408
2022-11-14T11:07:10.856Z,409
2022-11-14T11:08:43.715Z,419
2022-11-14T11:09:11.155Z,408
2022-11-14T11:10:11.503Z,405
2022-11-14T11:11:11.491Z,412
2022-11-14T11:12:34.099Z,400
2022-11-14T11:13:11.774Z,406
2022-11-14T11:14:12.762Z,398
2022-11-14T11:15:11.562Z,392
2022-11-14T11:16:11.080Z,395
2022-11-14T11:17:11.375Z,392
2022-11-14T11:18:11.947Z,396
2022-11-14T11:19:11.768Z,402
2022-11-14T11:21:12.188Z,395
2022-11-14T11:22:11.506Z,387
2022-11-14T11:23:11.461Z,380
2022-11-14T11:24:11.438Z,387
2022-11-14T11:25:12.190Z,383
2022-11-14T11:26:12.106Z,392
2022-11-14T11:27:11.801Z,388
2022-11-14T11:28:11.810Z,385
2022-11-14T11:29:11.980Z,374
2022-11-14T11:30:11.985Z,376
2022-11-14T11:31:12.230Z,380
2022-11-14T11:32:11.720Z,398
2022-11-14T11:33:11.937Z,390
2022-11-14T11:34:11.745Z,398
2022-11-14T11:35:12.330Z,403
2022-11-14T11:36:11.354Z,393
2022-11-14T11:37:11.393Z,380
2022-11-14T11:38:14.682Z,381
2022-11-14T11:39:10.828Z,392
2022-11-14T11:40:11.254Z,394
2022-11-14T11:41:15.618Z,399
2022-11-14T11:42:11.588Z,398
2022-11-14T11:43:39.244Z,396
2022-11-14T11:44:11.949Z,392
2022-11-14T11:45:12.055Z,388
2022-11-14T11:46:12.117Z,389
2022-11-14T11:47:11.438Z,390
2022-11-14T11:48:11.318Z,386
2022-11-14T11:49:11.733Z,374
2022-11-14T11:50:11.777Z,377
2022-11-14T11:51:11.520Z,383
2022-11-14T11:52:11.300Z,390
2022-11-14T11:53:11.006Z,376
2022-11-14T11:54:11.603Z,384
2022-11-14T11:55:11.325Z,391
2022-11-14T11:56:11.238Z,395
2022-11-14T11:57:11.710Z,397
2022-11-14T11:58:11.182Z,401
2022-11-14T11:59:11.807Z,403
2022-11-14T12:00:12.302Z,401
2022-11-14T12:01:11.899Z,405
2022-11-14T12:02:13.058Z,414
2022-11-14T12:03:11.535Z,401
2022-11-14T12:04:11.885Z,393
2022-11-14T12:05:11.252Z,399
2022-11-14T12:06:11.439Z,396
2022-11-14T12:07:12.108Z,394
2022-11-14T12:08:14.970Z,404
2022-11-14T12:10:11.860Z,406
2022-11-14T12:11:11.893Z,405
2022-11-14T12:12:11.751Z,392
2022-11-14T12:13:11.888Z,407
2022-11-14T12:14:11.784Z,384
2022-11-14T12:15:11.810Z,389
2022-11-14T12:16:13.222Z,397
2022-11-14T12:17:11.714Z,394
2022-11-14T12:18:11.231Z,406
2022-11-14T12:19:11.615Z,400
2022-11-14T12:20:11.093Z,397
2022-11-14T12:21:11.630Z,392
2022-11-14T12:22:11.242Z,384
2022-11-14T12:23:11.708Z,390
2022-11-14T12:24:11.340Z,383
2022-11-14T12:25:11.793Z,381
2022-11-14T12:26:11.409Z,376
2022-11-14T12:27:12.087Z,390
2022-11-14T12:28:11.844Z,388
2022-11-14T12:29:11.408Z,382
2022-11-14T12:30:10.979Z,385
2022-11-14T12:31:11.900Z,387
2022-11-14T12:32:11.380Z,384
2022-11-14T12:33:10.844Z,382
2022-11-14T12:34:11.602Z,395
2022-11-14T12:35:11.366Z,372
2022-11-14T12:36:11.664Z,388
2022-11-14T12:37:11.572Z,391
2022-11-14T12:38:11.095Z,384
2022-11-14T12:39:12.296Z,383
2022-11-14T12:40:11.355Z,388
2022-11-14T12:42:12.361Z,387
2022-11-14T12:43:11.056Z,386
2022-11-14T12:44:12.063Z,403
2022-11-14T12:45:11.920Z,398
2022-11-14T12:46:11.066Z,384
2022-11-14T12:47:11.387Z,386
2022-11-14T12:48:11.128Z,393
2022-11-14T12:49:16.876Z,385
2022-11-14T12:50:11.181Z,382
2022-11-14T12:51:11.980Z,380
2022-11-14T12:52:11.451Z,378
2022-11-14T12:53:11.093Z,384
2022-11-14T12:54:11.605Z,382
2022-11-14T12:55:11.207Z,373
2022-11-14T12:56:11.581Z,381
2022-11-14T12:57:10.754Z,392
2022-11-14T12:58:11.423Z,400
2022-11-14T12:59:10.931Z,395
2022-11-14T13:00:12.166Z,386
2022-11-14T13:01:11.870Z,391
2022-11-14T13:02:11.430Z,388
2022-11-14T13:03:11.573Z,394
2022-11-14T13:04:11.399Z,396
2022-11-14T13:05:26.278Z,402
2022-11-14T13:06:11.525Z,396
2022-11-14T13:07:11.169Z,383
2022-11-14T13:08:11.754Z,386
2022-11-14T13:09:11.492Z,396
2022-11-14T13:10:11.304Z,398
2022-11-14T13:11:24.928Z,392
2022-11-14T13:12:11.043Z,384
2022-11-14T13:13:11.364Z,378
2022-11-14T13:14:11.610Z,393
2022-11-14T13:15:11.273Z,395
2022-11-14T13:16:10.623Z,372
2022-11-14T13:17:11.116Z,381
2022-11-14T13:18:11.730Z,380
2022-11-14T13:19:11.128Z,384
2022-11-14T13:20:12.558Z,377
2022-11-14T13:21:10.991Z,381
2022-11-14T13:22:11.134Z,386
2022-11-14T13:23:11.222Z,393
2022-11-14T13:24:11.710Z,384
2022-11-14T13:25:11.237Z,381
2022-11-14T13:26:11.086Z,388
2022-11-14T13:27:11.533Z,399
2022-11-14T13:28:16.784Z,394
2022-11-14T13:29:11.129Z,389
2022-11-14T13:30:12.223Z,393
2022-11-14T13:32:11.288Z,389
2022-11-14T13:34:11.226Z,394
2022-11-14T13:35:10.744Z,404
2022-11-14T13:36:11.071Z,377
2022-11-14T13:37:11.406Z,373
2022-11-14T13:38:11.688Z,375
2022-11-14T13:39:11.292Z,397
2022-11-14T13:40:11.296Z,395
2022-11-14T13:43:11.083Z,389
2022-11-14T13:44:11.499Z,384
2022-11-14T13:45:10.780Z,381
2022-11-14T13:46:11.133Z,391
2022-11-14T13:47:11.603Z,389
2022-11-14T13:48:11.031Z,397
2022-11-14T13:49:11.312Z,400
2022-11-14T13:50:10.971Z,391
2022-11-14T13:51:36.720Z,385
2022-11-14T13:52:11.392Z,380
2022-11-14T13:53:11.139Z,377
2022-11-14T13:54:13.489Z,380
2022-11-14T13:55:11.583Z,385
2022-11-14T13:58:11.128Z,383
2022-11-14T13:59:11.682Z,385
2022-11-14T14:00:14.255Z,388
2022-11-14T14:02:11.895Z,379
2022-11-14T14:03:11.547Z,377
2022-11-14T14:04:11.119Z,379
2022-11-14T14:05:11.551Z,391
2022-11-14T14:06:11.035Z,395
2022-11-14T14:07:11.617Z,403
2022-11-14T14:08:11.510Z,399
2022-11-14T14:09:11.331Z,401
2022-11-14T14:10:11.416Z,404
2022-11-14T14:11:10.775Z,399
2022-11-14T14:12:11.150Z,402
2022-11-14T14:13:11.562Z,398
2022-11-14T14:14:10.746Z,391
2022-11-14T14:15:11.180Z,386
2022-11-14T14:16:11.606Z,403
2022-11-14T14:17:11.134Z,377
2022-11-14T14:18:11.671Z,383
2022-11-14T14:19:11.145Z,395
2022-11-14T14:20:11.620Z,391
2022-11-14T14:21:11.415Z,390
2022-11-14T14:22:11.183Z,398
2022-11-14T14:23:11.708Z,406
2022-11-14T14:24:11.455Z,402
2022-11-14T14:25:11.648Z,401
2022-11-14T14:26:11.170Z,396